This is the latest recevied weather packets stored in our database for station/object KJ6LNH-1. If no packets are shown the sender has not sent any weather packets the latest 1 day(s).
| Time | Temp. | Humidity | Pressure | Rain* | Wind** | Luminosity | Snow |
|---|---|---|---|---|---|---|---|
| 1778025308 | 17.78° C | 69% | 1013.8 hPa | 0 mm | 0.45 m/s, 196° | - | - |
| 1778024707 | 17.22° C | 69% | 1013.8 hPa | 0 mm | 0.89 m/s, 223° | - | - |
| 1778024407 | 17.78° C | 69% | 1013.8 hPa | 0 mm | 1.34 m/s, 283° | - | - |
| 1778024107 | 17.22° C | 72% | 1013.8 hPa | 0 mm | 0.89 m/s, 255° | - | - |
| 1778023808 | 16.67° C | 72% | 1013.8 hPa | 0 mm | 0.89 m/s, 201° | - | - |
| 1778023508 | 16.67° C | 72% | 1013.9 hPa | 0 mm | 0.45 m/s, 239° | - | - |
| 1778023208 | 16.67° C | 72% | 1013.9 hPa | 0 mm | 0.89 m/s, 196° | - | - |
| 1778022907 | 16.67° C | 71% | 1013.9 hPa | 0 mm | 0.89 m/s, 241° | - | - |
| 1778022607 | 17.22° C | 72% | 1013.9 hPa | 0 mm | 0.45 m/s, 195° | - | - |
| 1778022007 | 16.67° C | 72% | 1013.9 hPa | 0 mm | 0.89 m/s, 244° | - | - |
| 1778021708 | 16.67° C | 73% | 1013.9 hPa | 0 mm | 0.89 m/s, 235° | - | - |
| 1778021408 | 16.67° C | 72% | 1013.9 hPa | 0 mm | 0.45 m/s, 261° | - | - |
| 1778020807 | 17.22° C | 72% | 1014 hPa | 0 mm | 1.34 m/s, 235° | - | - |
| 1778020507 | 17.22° C | 72% | 1014 hPa | 0 mm | 0.89 m/s, 226° | - | - |
| 1778020216 | 17.22° C | 72% | 1014 hPa | 0 mm | 0.45 m/s, 238° | - | - |
| 1778019908 | 17.22° C | 71% | 1014 hPa | 0 mm | 0.45 m/s, 226° | - | - |
| 1778019607 | 17.22° C | 71% | 1014 hPa | 0 mm | 0.45 m/s, 259° | - | - |
| 1778019007 | 17.22° C | 71% | 1014.1 hPa | 0 mm | 0.45 m/s, 225° | - | - |
| 1778018710 | 17.78° C | 70% | 1014.1 hPa | 0 mm | 0.45 m/s, 189° | - | - |
| 1778018108 | 17.22° C | 71% | 1014.1 hPa | 0 mm | 0.45 m/s, 226° | - | - |
| 1778016908 | 16.11° C | 75% | 1014.3 hPa | 0 mm | 1.34 m/s, 241° | - | - |
| 1778016607 | 16.11° C | 76% | 1014.3 hPa | 0 mm | 1.79 m/s, 220° | - | - |
| 1778016307 | 16.11° C | 76% | 1014.4 hPa | 0 mm | 1.34 m/s, 216° | - | - |
| 1778015708 | 16.11° C | 75% | 1014.4 hPa | 0 mm | 1.34 m/s, 216° | - | - |
| 1778014807 | 16.67° C | 71% | 1014.3 hPa | 0 mm | 0.45 m/s, 208° | - | - |
* Rain latest hour (hover to see other rain measurements)
** Current wind speed in m/s (hover to see current wind gust speed)